createdAt,value
2023-01-12T00:03:08.466Z,1001.171
2023-01-12T00:23:07.220Z,1001.107
2023-01-12T00:43:08.097Z,1001.136
2023-01-12T01:03:08.957Z,1000.833
2023-01-12T01:23:07.722Z,1000.676
2023-01-12T01:43:07.451Z,1000.79
2023-01-12T02:03:08.564Z,1000.74
2023-01-12T02:23:07.450Z,1000.588
2023-01-12T02:43:07.216Z,1000.112
2023-01-12T03:03:08.215Z,999.952
2023-01-12T03:23:08.111Z,999.715
2023-01-12T03:43:08.152Z,999.58
2023-01-12T04:03:09.015Z,999.396
2023-01-12T04:23:07.879Z,999.052
2023-01-12T04:43:09.316Z,998.708
2023-01-12T05:03:08.106Z,998.491
2023-01-12T05:23:08.126Z,998.141
2023-01-12T05:43:07.183Z,997.757
2023-01-12T06:03:09.081Z,997.56
2023-01-12T06:23:07.900Z,997.329
2023-01-12T06:43:07.714Z,997.136
2023-01-12T07:03:08.547Z,996.966
2023-01-12T07:23:07.244Z,996.702
2023-01-12T07:43:08.130Z,996.467
2023-01-12T08:03:08.815Z,996.185
2023-01-12T08:23:07.882Z,996
2023-01-12T08:43:07.902Z,996.037
2023-01-12T09:03:08.748Z,996.013
2023-01-12T09:23:07.498Z,996.313
2023-01-12T09:43:07.601Z,996.572
2023-01-12T10:03:08.891Z,996.731
2023-01-12T10:23:07.718Z,996.911
2023-01-12T10:43:20.928Z,996.869
2023-01-12T11:03:08.817Z,996.856
2023-01-12T11:23:07.560Z,996.741
2023-01-12T11:43:07.617Z,996.622
2023-01-12T12:03:08.440Z,996.614
2023-01-12T12:23:07.372Z,996.615
2023-01-12T12:43:07.516Z,996.599
2023-01-12T13:03:08.500Z,996.436
2023-01-12T13:23:07.469Z,996.423
2023-01-12T13:43:07.438Z,996.376
2023-01-12T14:03:08.621Z,996.426
2023-01-12T14:23:07.586Z,996.502
2023-01-12T14:43:07.543Z,996.501
2023-01-12T15:03:08.712Z,996.376
2023-01-12T15:23:07.606Z,996.405
2023-01-12T15:43:07.530Z,996.336
2023-01-12T16:03:19.812Z,996.421
2023-01-12T16:23:07.878Z,996.346
2023-01-12T16:43:07.882Z,996.236
2023-01-12T17:03:09.168Z,996.004
2023-01-12T17:23:07.251Z,995.813
2023-01-12T17:43:09.426Z,995.767
2023-01-12T18:03:08.486Z,995.781
2023-01-12T18:23:07.358Z,995.799
2023-01-12T18:43:07.421Z,995.594
2023-01-12T19:03:08.705Z,995.416
2023-01-12T19:23:07.643Z,995.549
2023-01-12T19:43:07.730Z,995.481
2023-01-12T20:03:08.829Z,995.491
2023-01-12T20:23:07.715Z,995.34
2023-01-12T20:43:07.957Z,995.272
2023-01-12T21:03:09.216Z,995.153
2023-01-12T21:23:07.233Z,995.249
2023-01-12T21:43:07.333Z,995.322
2023-01-12T22:03:08.368Z,995.238
2023-01-12T22:23:07.236Z,995.098
2023-01-12T22:43:07.261Z,995.154
2023-01-12T23:03:09.318Z,994.978
2023-01-12T23:23:07.355Z,995.082
2023-01-12T23:43:08.203Z,994.809
